Time;durP1;ratioP1;P1;durP2;ratioP2;P2;SDS_P1;SDS_P2;PMS_P1;PMS_P2;Temp;Humidity;BMP_temperature;BMP_pressure;BME280_temperature;BME280_humidity;BME280_pressure;Samples;Min_cycle;Max_cycle;Signal;HPM_P1;HPM_P2
2024/04/22 00:00:54;;;;;;;4.28;3.60;;;;;;;;;;5383236;26;20004;-62
2024/04/22 00:03:19;;;;;;;3.60;3.28;;;;;;;;;;5383019;26;20000;-62
2024/04/22 00:05:54;;;;;;;3.47;3.05;;;;;;;;;;5382350;26;20000;-62
2024/04/22 00:08:20;;;;;;;3.78;3.40;;;;;;;;;;5383029;26;20070;-62
2024/04/22 00:10:46;;;;;;;3.20;3.00;;;;;;;;;;5352105;26;20000;-62
2024/04/22 00:13:11;;;;;;;4.45;3.65;;;;;;;;;;5382863;26;20001;-62
2024/04/22 00:15:37;;;;;;;5.93;3.50;;;;;;;;;;5383054;26;20069;-62
2024/04/22 00:18:02;;;;;;;5.15;4.07;;;;;;;;;;5392947;26;19999;-62
2024/04/22 00:20:28;;;;;;;3.67;3.40;;;;;;;;;;5418811;26;20002;-62
2024/04/22 00:22:53;;;;;;;3.47;3.08;;;;;;;;;;5418705;26;20010;-62
2024/04/22 00:25:18;;;;;;;4.47;3.50;;;;;;;;;;5418746;26;20002;-62
2024/04/22 00:27:44;;;;;;;4.72;3.58;;;;;;;;;;5418085;26;19992;-62
2024/04/22 00:30:09;;;;;;;4.00;3.50;;;;;;;;;;5418353;26;20060;-62
2024/04/22 00:32:35;;;;;;;4.40;3.17;;;;;;;;;;5418178;26;19992;-62
2024/04/22 00:35:00;;;;;;;3.90;3.45;;;;;;;;;;5418556;26;20064;-62
2024/04/22 00:37:26;;;;;;;5.63;3.90;;;;;;;;;;5418073;26;19992;-62
2024/04/22 00:39:51;;;;;;;4.10;3.70;;;;;;;;;;5418551;26;19991;-62
2024/04/22 00:42:16;;;;;;;4.45;3.88;;;;;;;;;;5418117;26;20064;-62
2024/04/22 00:44:42;;;;;;;5.80;4.10;;;;;;;;;;5418147;26;20012;-62
2024/04/22 00:47:07;;;;;;;4.15;3.08;;;;;;;;;;5418297;26;20372;-62
2024/04/22 00:49:33;;;;;;;4.88;4.00;;;;;;;;;;5418047;26;20430;-62
2024/04/22 00:51:58;;;;;;;3.85;3.42;;;;;;;;;;5418237;26;20037;-62
2024/04/22 00:54:23;;;;;;;5.60;3.30;;;;;;;;;;5418101;26;20008;-62
2024/04/22 00:56:49;;;;;;;4.80;3.80;;;;;;;;;;5386421;26;20000;-62
2024/04/22 00:59:15;;;;;;;5.50;3.42;;;;;;;;;;5418017;26;19992;-62
2024/04/22 01:01:41;;;;;;;4.55;4.10;;;;;;;;;;5417795;26;20093;-62
2024/04/22 01:04:07;;;;;;;5.68;4.25;;;;;;;;;;5417710;26;20014;-62
2024/04/22 01:06:32;;;;;;;5.00;3.95;;;;;;;;;;5417463;26;19996;-62
2024/04/22 01:08:57;;;;;;;5.85;4.00;;;;;;;;;;5417352;26;20007;-62
2024/04/22 01:11:23;;;;;;;3.55;3.25;;;;;;;;;;5417116;26;20024;-61
2024/04/22 01:13:48;;;;;;;3.90;3.50;;;;;;;;;;5417417;26;20072;-61
2024/04/22 01:16:14;;;;;;;3.50;3.20;;;;;;;;;;5417314;26;20000;-61
2024/04/22 01:18:39;;;;;;;5.95;4.07;;;;;;;;;;5420147;26;20430;-61
2024/04/22 01:21:04;;;;;;;3.78;3.10;;;;;;;;;;5421013;26;20329;-61
2024/04/22 01:23:31;;;;;;;4.82;3.53;;;;;;;;;;5421237;26;20072;-61
2024/04/22 01:25:57;;;;;;;3.58;3.28;;;;;;;;;;5420986;26;19999;-62
2024/04/22 01:28:23;;;;;;;4.18;3.78;;;;;;;;;;5421366;26;20043;-63
2024/04/22 01:30:49;;;;;;;3.72;3.20;;;;;;;;;;5421009;26;20000;-63
2024/04/22 01:33:15;;;;;;;4.10;3.13;;;;;;;;;;5420934;26;20072;-63
2024/04/22 01:35:40;;;;;;;4.57;3.08;;;;;;;;;;5389695;26;20014;-62
2024/04/22 01:38:06;;;;;;;2.65;2.47;;;;;;;;;;5420722;26;19995;-62
2024/04/22 01:40:31;;;;;;;3.20;2.85;;;;;;;;;;5421357;26;20010;-62
2024/04/22 01:42:56;;;;;;;3.28;2.97;;;;;;;;;;5421063;26;20379;-62
2024/04/22 01:45:22;;;;;;;3.15;2.88;;;;;;;;;;5420596;26;20314;-62
2024/04/22 01:47:47;;;;;;;3.33;3.03;;;;;;;;;;5421034;26;20003;-62
2024/04/22 01:50:12;;;;;;;3.35;2.90;;;;;;;;;;5420725;26;20002;-61
2024/04/22 01:52:38;;;;;;;3.38;3.00;;;;;;;;;;5420885;26;20065;-62
2024/04/22 01:55:03;;;;;;;3.97;3.08;;;;;;;;;;5420505;26;20003;-62
2024/04/22 01:57:29;;;;;;;3.75;2.67;;;;;;;;;;5420559;26;20096;-62
2024/04/22 01:59:54;;;;;;;3.70;3.40;;;;;;;;;;5388975;26;19999;-62
2024/04/22 02:02:19;;;;;;;3.65;2.90;;;;;;;;;;5420095;26;19992;-62
2024/04/22 02:04:45;;;;;;;2.85;2.28;;;;;;;;;;5420032;26;19992;-61
2024/04/22 02:07:10;;;;;;;3.10;2.80;;;;;;;;;;5420170;26;20007;-61
2024/04/22 02:09:36;;;;;;;3.17;2.80;;;;;;;;;;5388965;26;20010;-61
2024/04/22 02:12:01;;;;;;;3.38;3.08;;;;;;;;;;5420120;26;19991;-61
2024/04/22 02:14:27;;;;;;;3.47;3.17;;;;;;;;;;5420039;26;20015;-61
2024/04/22 02:16:53;;;;;;;3.30;3.00;;;;;;;;;;5420253;26;19999;-61
2024/04/22 02:19:18;;;;;;;3.42;3.13;;;;;;;;;;5419845;26;20006;-61
2024/04/22 02:21:44;;;;;;;3.42;3.13;;;;;;;;;;5420190;26;20449;-61
2024/04/22 02:24:09;;;;;;;3.95;3.20;;;;;;;;;;5420210;26;19992;-61
2024/04/22 02:26:34;;;;;;;4.13;3.20;;;;;;;;;;5388620;26;20007;-61
2024/04/22 02:29:00;;;;;;;3.72;3.35;;;;;;;;;;5388257;26;19996;-61
2024/04/22 02:31:25;;;;;;;3.42;3.13;;;;;;;;;;5419905;26;20000;-61
2024/04/22 02:33:51;;;;;;;3.78;3.30;;;;;;;;;;5419951;26;20420;-61
2024/04/22 02:36:16;;;;;;;3.47;3.15;;;;;;;;;;5419706;26;20380;-61
2024/04/22 02:38:42;;;;;;;3.38;3.08;;;;;;;;;;5419887;26;20151;-61
2024/04/22 02:41:07;;;;;;;3.42;3.13;;;;;;;;;;5419950;26;20433;-61
2024/04/22 02:43:33;;;;;;;3.78;3.25;;;;;;;;;;5388367;26;20453;-61
2024/04/22 02:45:58;;;;;;;2.70;2.50;;;;;;;;;;5419860;26;20010;-61
2024/04/22 02:48:24;;;;;;;2.78;2.58;;;;;;;;;;5420012;26;20437;-61
2024/04/22 02:50:49;;;;;;;2.58;2.38;;;;;;;;;;5388283;26;20333;-61
2024/04/22 02:53:15;;;;;;;5.25;2.67;;;;;;;;;;5388118;26;20006;-62
2024/04/22 02:55:40;;;;;;;28.42;19.98;;;;;;;;;;5419785;26;20002;-62
2024/04/22 02:58:06;;;;;;;22.10;15.25;;;;;;;;;;5419464;26;20003;-62
2024/04/22 03:00:31;;;;;;;9.35;6.07;;;;;;;;;;5419533;26;20342;-62
2024/04/22 03:02:56;;;;;;;30.27;14.50;;;;;;;;;;5419627;26;20295;-62
2024/04/22 03:05:22;;;;;;;15.65;7.30;;;;;;;;;;5387933;26;20016;-62
2024/04/22 03:07:47;;;;;;;5.03;3.70;;;;;;;;;;5388558;26;20000;-62
2024/04/22 03:10:13;;;;;;;3.42;3.13;;;;;;;;;;5419805;26;20000;-62
2024/04/22 03:12:38;;;;;;;13.93;6.80;;;;;;;;;;5419434;26;20073;-62
2024/04/22 03:15:04;;;;;;;11.88;6.32;;;;;;;;;;5419442;26;20008;-62
2024/04/22 03:17:29;;;;;;;4.47;3.10;;;;;;;;;;5419322;26;19995;-62
2024/04/22 03:19:55;;;;;;;2.83;2.45;;;;;;;;;;5419546;26;20426;-62
2024/04/22 03:22:20;;;;;;;7.65;5.75;;;;;;;;;;5419613;26;19992;-62
2024/04/22 03:24:46;;;;;;;21.15;11.75;;;;;;;;;;5419256;26;20000;-62
2024/04/22 03:27:11;;;;;;;7.63;5.90;;;;;;;;;;5419452;26;20079;-62
2024/04/22 03:29:37;;;;;;;3.45;2.92;;;;;;;;;;5419618;26;19999;-62
2024/04/22 03:32:03;;;;;;;4.20;3.38;;;;;;;;;;5387997;26;19991;-62
2024/04/22 03:34:28;;;;;;;3.35;2.90;;;;;;;;;;5388093;26;20441;-63
2024/04/22 03:36:54;;;;;;;4.05;3.35;;;;;;;;;;5387812;26;20010;-62
2024/04/22 03:39:19;;;;;;;4.50;3.10;;;;;;;;;;5418773;26;20329;-62
2024/04/22 03:41:45;;;;;;;4.00;3.60;;;;;;;;;;5418470;26;20000;-62
2024/04/22 03:44:11;;;;;;;7.35;3.85;;;;;;;;;;5419240;26;20003;-62
2024/04/22 03:52:05;;;;;;;6.22;4.55;;;;;;;;;;5415504;26;19995;-61
2024/04/22 03:54:31;;;;;;;9.18;6.38;;;;;;;;;;5415565;26;20007;-62
2024/04/22 03:56:57;;;;;;;4.85;4.13;;;;;;;;;;5415670;26;20077;-62
2024/04/22 03:59:22;;;;;;;9.57;6.68;;;;;;;;;;5415760;26;20015;-65
2024/04/22 04:01:48;;;;;;;4.75;4.35;;;;;;;;;;5415621;26;19999;-63
2024/04/22 04:04:13;;;;;;;4.32;3.88;;;;;;;;;;5415175;26;20008;-62
2024/04/22 04:06:38;;;;;;;7.10;5.53;;;;;;;;;;5414789;26;19996;-62
2024/04/22 04:09:04;;;;;;;7.15;4.80;;;;;;;;;;5384226;26;20011;-62
2024/04/22 04:11:36;;;;;;;5.18;4.05;;;;;;;;;;5418041;26;20438;-62
2024/04/22 04:14:02;;;;;;;4.38;3.75;;;;;;;;;;5418504;26;19995;-62
2024/04/22 04:16:28;;;;;;;4.65;3.53;;;;;;;;;;5418419;26;20010;-63
2024/04/22 04:18:53;;;;;;;4.38;3.97;;;;;;;;;;5395895;26;19996;-63
2024/04/22 04:21:18;;;;;;;4.88;3.67;;;;;;;;;;5382740;26;20028;-63
2024/04/22 04:23:44;;;;;;;5.53;3.83;;;;;;;;;;5382556;26;20001;-63
2024/04/22 04:26:09;;;;;;;3.78;3.30;;;;;;;;;;5382600;26;20011;-63
2024/04/22 04:28:35;;;;;;;4.95;3.97;;;;;;;;;;5382542;26;20000;-63
2024/04/22 04:31:00;;;;;;;3.60;3.08;;;;;;;;;;5382742;26;20000;-62
2024/04/22 04:33:26;;;;;;;3.90;3.60;;;;;;;;;;5382541;26;19996;-62
2024/04/22 04:35:58;;;;;;;3.50;3.20;;;;;;;;;;5382636;26;20073;-63
2024/04/22 04:38:23;;;;;;;5.13;3.67;;;;;;;;;;5382584;26;20028;-62
2024/04/22 04:40:49;;;;;;;4.97;3.78;;;;;;;;;;5382470;26;20076;-62
2024/04/22 04:43:14;;;;;;;4.00;3.55;;;;;;;;;;5382413;26;20073;-62
2024/04/22 04:45:39;;;;;;;3.92;3.63;;;;;;;;;;5382564;26;20000;-62
2024/04/22 04:48:05;;;;;;;3.78;3.45;;;;;;;;;;5382266;26;20010;-62
2024/04/22 04:50:30;;;;;;;6.05;4.28;;;;;;;;;;5382598;26;20008;-62
2024/04/22 04:52:56;;;;;;;4.22;3.75;;;;;;;;;;5354431;26;20443;-62
2024/04/22 04:55:21;;;;;;;5.43;4.05;;;;;;;;;;5385960;26;19992;-62
2024/04/22 04:57:46;;;;;;;5.68;3.63;;;;;;;;;;5354766;26;20004;-62
2024/04/22 05:00:12;;;;;;;5.00;3.50;;;;;;;;;;5385651;26;20065;-62
2024/04/22 05:02:37;;;;;;;3.40;2.85;;;;;;;;;;5385504;26;20065;-62
2024/04/22 05:05:03;;;;;;;3.47;3.17;;;;;;;;;;5385288;26;20015;-62
2024/04/22 05:07:28;;;;;;;4.80;3.63;;;;;;;;;;5385291;26;20008;-62
2024/04/22 05:09:54;;;;;;;3.95;3.65;;;;;;;;;;5385393;26;20007;-63
2024/04/22 05:12:19;;;;;;;4.68;3.30;;;;;;;;;;5385419;26;20442;-62
2024/04/22 05:14:45;;;;;;;3.63;3.33;;;;;;;;;;5354424;26;20007;-62
2024/04/22 05:17:10;;;;;;;3.13;2.92;;;;;;;;;;5385197;26;19992;-62
2024/04/22 05:19:35;;;;;;;3.58;3.28;;;;;;;;;;5417837;26;20387;-62
2024/04/22 05:22:01;;;;;;;4.75;3.20;;;;;;;;;;5420657;26;20307;-62
2024/04/22 05:24:26;;;;;;;3.78;3.38;;;;;;;;;;5420739;26;20007;-62
2024/04/22 05:26:51;;;;;;;4.20;3.55;;;;;;;;;;5420671;26;19992;-64
2024/04/22 05:29:17;;;;;;;3.70;3.38;;;;;;;;;;5420633;26;20006;-64
2024/04/22 05:31:42;;;;;;;4.47;3.45;;;;;;;;;;5417575;26;20010;-64
2024/04/22 05:36:51;;;;;;;3.92;3.60;;;;;;;;;;5417090;26;19999;-64
2024/04/22 05:39:18;;;;;;;4.72;3.88;;;;;;;;;;5416881;26;20006;-64
2024/04/22 05:41:43;;;;;;;3.78;3.47;;;;;;;;;;5416896;26;20003;-64
2024/04/22 05:44:09;;;;;;;4.57;3.22;;;;;;;;;;5416779;26;20010;-64
2024/04/22 05:46:34;;;;;;;4.10;3.22;;;;;;;;;;5416744;26;19992;-64
2024/04/22 05:48:59;;;;;;;3.58;3.22;;;;;;;;;;5385351;26;20563;-64
2024/04/22 05:51:25;;;;;;;3.92;3.53;;;;;;;;;;5416611;26;19991;-57
2024/04/22 05:53:50;;;;;;;4.55;4.15;;;;;;;;;;5385146;26;20003;-64
2024/04/22 05:56:15;;;;;;;4.50;3.55;;;;;;;;;;5385266;26;19995;-57
2024/04/22 05:58:41;;;;;;;3.85;3.55;;;;;;;;;;5416760;26;20396;-57
2024/04/22 06:01:06;;;;;;;4.38;3.97;;;;;;;;;;5390788;21;20019;-57
2024/04/22 06:03:33;;;;;;;5.13;4.22;;;;;;;;;;5384191;26;20065;-57
2024/04/22 06:05:58;;;;;;;4.45;4.00;;;;;;;;;;5384877;26;20016;-57
2024/04/22 06:08:24;;;;;;;4.60;4.13;;;;;;;;;;5384922;26;20079;-56
2024/04/22 06:10:49;;;;;;;4.45;4.05;;;;;;;;;;5384956;26;19996;-57
2024/04/22 06:13:15;;;;;;;4.57;3.67;;;;;;;;;;5384752;26;20315;-64
2024/04/22 06:15:43;;;;;;;4.30;3.97;;;;;;;;;;5384801;26;19996;-57
2024/04/22 06:18:08;;;;;;;4.25;3.95;;;;;;;;;;5384852;26;20000;-57
2024/04/22 06:20:34;;;;;;;4.05;3.75;;;;;;;;;;5384763;26;20010;-57
2024/04/22 06:22:59;;;;;;;4.70;4.07;;;;;;;;;;5353902;26;19996;-57
2024/04/22 06:25:24;;;;;;;5.38;4.43;;;;;;;;;;5353744;26;19996;-57
2024/04/22 06:27:50;;;;;;;4.15;3.75;;;;;;;;;;5384926;26;19993;-57
2024/04/22 06:30:16;;;;;;;4.65;4.07;;;;;;;;;;5384653;26;19996;-57
2024/04/22 06:32:41;;;;;;;4.82;4.32;;;;;;;;;;5384542;26;20004;-57
2024/04/22 06:35:06;;;;;;;10.52;6.00;;;;;;;;;;5324775;26;20007;-57
2024/04/22 06:37:32;;;;;;;4.13;3.55;;;;;;;;;;5384529;26;19992;-57
2024/04/22 06:39:57;;;;;;;4.10;3.70;;;;;;;;;;5384505;26;20000;-57
2024/04/22 06:42:22;;;;;;;4.35;3.95;;;;;;;;;;5353885;26;19992;-57
2024/04/22 06:44:48;;;;;;;3.92;3.58;;;;;;;;;;5384504;26;20375;-57
2024/04/22 06:47:14;;;;;;;4.82;3.38;;;;;;;;;;5384708;26;20492;-57
2024/04/22 06:49:39;;;;;;;4.57;3.70;;;;;;;;;;5384221;26;20010;-57
2024/04/22 06:52:08;;;;;;;4.40;3.53;;;;;;;;;;5384369;26;20000;-57
2024/04/22 06:54:33;;;;;;;7.70;3.85;;;;;;;;;;5384098;26;20000;-57
2024/04/22 06:56:59;;;;;;;6.25;4.70;;;;;;;;;;5384255;26;20007;-57
2024/04/22 06:59:24;;;;;;;6.53;4.00;;;;;;;;;;5384462;26;20459;-57
2024/04/22 07:01:50;;;;;;;6.03;4.35;;;;;;;;;;5352744;26;19996;-57
2024/04/22 07:04:15;;;;;;;7.43;5.50;;;;;;;;;;5384441;26;19997;-57
2024/04/22 07:06:40;;;;;;;7.65;5.53;;;;;;;;;;5384174;26;20007;-57
2024/04/22 07:09:09;;;;;;;8.40;3.78;;;;;;;;;;5384154;26;20061;-57
2024/04/22 07:11:35;;;;;;;5.57;3.78;;;;;;;;;;5383802;26;20069;-57
2024/04/22 07:14:01;;;;;;;7.95;4.03;;;;;;;;;;5383420;26;19997;-57
2024/04/22 07:16:27;;;;;;;12.77;4.93;;;;;;;;;;5383032;26;19992;-57
2024/04/22 07:18:52;;;;;;;12.23;5.00;;;;;;;;;;5383964;26;20380;-56
2024/04/22 07:21:18;;;;;;;6.78;4.63;;;;;;;;;;5383964;26;20381;-57
2024/04/22 07:23:43;;;;;;;5.00;3.67;;;;;;;;;;5383928;26;19996;-57
2024/04/22 07:26:09;;;;;;;2.95;2.65;;;;;;;;;;5383853;26;20070;-57
2024/04/22 07:28:35;;;;;;;4.53;3.00;;;;;;;;;;5353062;26;20032;-56
2024/04/22 07:31:01;;;;;;;5.53;3.60;;;;;;;;;;5383832;26;20065;-57
2024/04/22 07:33:27;;;;;;;2.60;1.88;;;;;;;;;;5383748;26;20414;-57
2024/04/22 07:35:55;;;;;;;5.60;3.25;;;;;;;;;;5383892;26;19996;-57
2024/04/22 07:38:24;;;;;;;2.55;2.22;;;;;;;;;;5383534;26;20331;-57
2024/04/22 07:40:49;;;;;;;4.07;3.45;;;;;;;;;;5383723;26;20025;-56
2024/04/22 07:43:15;;;;;;;17.30;8.63;;;;;;;;;;5383575;26;20011;-57
2024/04/22 07:45:40;;;;;;;2.70;2.47;;;;;;;;;;5352370;26;20008;-57
2024/04/22 07:48:06;;;;;;;2.60;2.13;;;;;;;;;;5383585;26;20002;-57
2024/04/22 07:50:32;;;;;;;3.03;2.50;;;;;;;;;;5383412;26;20354;-57
2024/04/22 07:52:57;;;;;;;3.20;2.20;;;;;;;;;;5383408;26;20000;-56
2024/04/22 07:55:23;;;;;;;1.88;1.63;;;;;;;;;;5383461;26;20004;-57
2024/04/22 07:57:49;;;;;;;3.00;2.28;;;;;;;;;;5383456;26;20438;-57
2024/04/22 08:00:14;;;;;;;2.20;1.70;;;;;;;;;;5383034;26;20061;-57
2024/04/22 08:02:40;;;;;;;1.33;1.23;;;;;;;;;;5352046;26;19997;-57
2024/04/22 08:05:05;;;;;;;2.00;1.88;;;;;;;;;;5383285;26;20001;-57
2024/04/22 08:07:33;;;;;;;2.95;1.88;;;;;;;;;;5352293;26;19996;-57
2024/04/22 08:09:58;;;;;;;6.18;3.53;;;;;;;;;;5383139;26;20000;-56
2024/04/22 08:12:24;;;;;;;2.92;1.90;;;;;;;;;;5383138;26;20072;-56
2024/04/22 08:14:49;;;;;;;3.42;2.00;;;;;;;;;;5383176;26;20008;-57
2024/04/22 08:17:14;;;;;;;3.10;2.10;;;;;;;;;;5352364;26;19996;-56
2024/04/22 08:19:41;;;;;;;3.70;3.10;;;;;;;;;;5383125;26;19992;-56
2024/04/22 08:22:06;;;;;;;2.17;1.85;;;;;;;;;;5383355;26;20327;-57
2024/04/22 08:24:31;;;;;;;2.38;2.00;;;;;;;;;;5383059;26;20012;-57
2024/04/22 08:26:58;;;;;;;1.83;1.70;;;;;;;;;;5382363;26;20011;-56
2024/04/22 08:29:25;;;;;;;2.00;1.75;;;;;;;;;;5382559;26;20081;-57
2024/04/22 08:31:51;;;;;;;2.08;1.98;;;;;;;;;;5382831;26;20393;-56
2024/04/22 08:34:17;;;;;;;3.20;1.85;;;;;;;;;;5351871;26;20000;-56
2024/04/22 08:36:42;;;;;;;1.75;1.65;;;;;;;;;;5351898;26;20000;-56
2024/04/22 08:39:07;;;;;;;2.55;1.75;;;;;;;;;;5382828;26;20000;-56
2024/04/22 08:41:36;;;;;;;1.83;1.70;;;;;;;;;;5382532;26;20000;-56
2024/04/22 08:44:02;;;;;;;2.53;2.00;;;;;;;;;;5351592;26;19996;-57
2024/04/22 08:46:28;;;;;;;2.53;2.33;;;;;;;;;;5382553;26;20427;-57
2024/04/22 08:48:53;;;;;;;2.85;1.60;;;;;;;;;;5351798;26;20385;-56
2024/04/22 08:51:19;;;;;;;1.73;1.58;;;;;;;;;;5382603;26;20415;-57
2024/04/22 08:53:44;;;;;;;1.80;1.60;;;;;;;;;;5382472;26;20000;-57
2024/04/22 08:56:10;;;;;;;4.28;2.20;;;;;;;;;;5351756;26;19996;-56
2024/04/22 08:58:35;;;;;;;2.47;2.28;;;;;;;;;;5382653;26;20008;-56
2024/04/22 09:01:04;;;;;;;1.92;1.60;;;;;;;;;;5351395;26;20000;-57
2024/04/22 09:03:29;;;;;;;1.60;1.45;;;;;;;;;;5382333;26;20000;-56
2024/04/22 09:05:54;;;;;;;2.67;1.52;;;;;;;;;;5382328;26;20014;-56
2024/04/22 09:08:20;;;;;;;2.20;1.60;;;;;;;;;;5382308;26;20000;-57
2024/04/22 09:10:53;;;;;;;2.38;2.17;;;;;;;;;;5382226;26;20012;-56
2024/04/22 09:13:18;;;;;;;2.65;1.80;;;;;;;;;;5382159;26;20327;-56
2024/04/22 09:15:43;;;;;;;1.95;1.70;;;;;;;;;;5382146;26;20000;-56
2024/04/22 09:18:12;;;;;;;6.20;3.75;;;;;;;;;;5350901;26;20316;-56
2024/04/22 09:20:38;;;;;;;5.75;4.45;;;;;;;;;;5381950;26;19996;-56
2024/04/22 09:23:03;;;;;;;3.25;2.05;;;;;;;;;;5382041;26;19998;-57
2024/04/22 09:25:29;;;;;;;4.75;3.13;;;;;;;;;;5382009;26;20006;-56
2024/04/22 09:27:54;;;;;;;4.10;3.55;;;;;;;;;;5351374;26;20310;-57
2024/04/22 09:30:23;;;;;;;2.58;1.90;;;;;;;;;;5381916;26;20319;-57
2024/04/22 09:32:51;;;;;;;3.35;2.53;;;;;;;;;;5350564;26;20330;-57
2024/04/22 09:35:17;;;;;;;2.63;2.20;;;;;;;;;;5381474;26;20389;-57
2024/04/22 09:37:43;;;;;;;2.28;2.00;;;;;;;;;;5382164;26;20316;-57
2024/04/22 09:40:12;;;;;;;30.65;19.17;;;;;;;;;;5354740;26;19996;-57
2024/04/22 09:42:39;;;;;;;2.47;2.28;;;;;;;;;;5385549;26;20437;-56
2024/04/22 09:45:05;;;;;;;3.10;2.63;;;;;;;;;;5385532;26;20511;-57
2024/04/22 09:47:31;;;;;;;2.67;2.30;;;;;;;;;;5385424;26;20234;-56
2024/04/22 09:49:58;;;;;;;3.30;2.63;;;;;;;;;;5385448;26;20339;-57
2024/04/22 09:52:25;;;;;;;1.95;1.80;;;;;;;;;;5385193;26;20003;-57
2024/04/22 09:54:50;;;;;;;1.83;1.70;;;;;;;;;;5385308;26;20322;-56
2024/04/22 09:57:17;;;;;;;1.85;1.70;;;;;;;;;;5385149;26;20024;-56
2024/04/22 09:59:42;;;;;;;1.80;1.70;;;;;;;;;;5384954;26;20099;-57
2024/04/22 10:02:08;;;;;;;2.17;1.80;;;;;;;;;;5385239;26;20430;-56
2024/04/22 10:04:33;;;;;;;2.35;2.03;;;;;;;;;;5385322;26;20459;-57
2024/04/22 10:06:59;;;;;;;3.08;2.47;;;;;;;;;;5384929;26;19992;-56
2024/04/22 10:09:26;;;;;;;13.68;5.53;;;;;;;;;;5354487;26;20414;-57
2024/04/22 10:11:51;;;;;;;8.13;4.88;;;;;;;;;;5384961;26;20012;-56
2024/04/22 10:14:19;;;;;;;7.13;4.63;;;;;;;;;;5384848;26;19992;-57
2024/04/22 10:16:57;;;;;;;2.08;1.85;;;;;;;;;;5353905;26;20008;-57
2024/04/22 10:19:22;;;;;;;4.38;2.92;;;;;;;;;;5384620;26;20015;-57
2024/04/22 10:21:49;;;;;;;4.85;3.15;;;;;;;;;;5384826;26;20427;-57
2024/04/22 10:24:15;;;;;;;10.45;4.93;;;;;;;;;;5353613;26;20007;-57
2024/04/22 10:26:41;;;;;;;10.10;5.00;;;;;;;;;;5384635;26;20000;-57
2024/04/22 10:29:06;;;;;;;3.45;2.08;;;;;;;;;;5384459;26;20028;-57
2024/04/22 10:31:32;;;;;;;2.50;1.90;;;;;;;;;;5384605;26;20011;-56
2024/04/22 10:33:58;;;;;;;2.10;2.00;;;;;;;;;;5384553;26;20431;-57
2024/04/22 10:36:25;;;;;;;2.33;2.10;;;;;;;;;;5384523;26;20073;-57
2024/04/22 10:38:51;;;;;;;2.38;2.08;;;;;;;;;;5353710;26;20020;-57
2024/04/22 10:41:16;;;;;;;2.30;2.10;;;;;;;;;;5384509;26;19992;-56
2024/04/22 10:43:45;;;;;;;1.80;1.70;;;;;;;;;;5353649;26;20323;-57
2024/04/22 10:46:10;;;;;;;2.05;1.95;;;;;;;;;;5384290;26;20000;-56
2024/04/22 10:48:36;;;;;;;2.33;2.13;;;;;;;;;;5383933;26;20003;-57
2024/04/22 10:51:01;;;;;;;1.92;1.83;;;;;;;;;;5384354;26;20000;-57
2024/04/22 10:53:27;;;;;;;2.67;1.85;;;;;;;;;;5353777;26;19996;-57
2024/04/22 10:55:52;;;;;;;2.53;2.15;;;;;;;;;;5384601;26;20002;-57
2024/04/22 10:58:18;;;;;;;2.20;2.00;;;;;;;;;;5384572;26;19996;-57
2024/04/22 11:00:44;;;;;;;2.03;1.92;;;;;;;;;;5384519;26;20076;-58
2024/04/22 11:03:10;;;;;;;2.17;2.03;;;;;;;;;;5383995;26;20028;-57
2024/04/22 11:05:36;;;;;;;5.28;2.30;;;;;;;;;;5384143;26;20441;-57
2024/04/22 11:08:01;;;;;;;2.17;1.63;;;;;;;;;;5353422;26;19996;-57
2024/04/22 11:10:28;;;;;;;2.60;1.90;;;;;;;;;;5384017;26;20434;-56
2024/04/22 11:12:54;;;;;;;2.40;2.08;;;;;;;;;;5383944;26;20308;-57
2024/04/22 11:15:20;;;;;;;3.95;3.47;;;;;;;;;;5384296;26;20010;-56
2024/04/22 11:17:45;;;;;;;3.30;2.10;;;;;;;;;;5383973;26;20327;-56
2024/04/22 11:20:11;;;;;;;1.88;1.55;;;;;;;;;;5383979;26;20000;-57
2024/04/22 11:22:37;;;;;;;2.00;1.90;;;;;;;;;;5383899;26;20450;-57
2024/04/22 11:25:03;;;;;;;1.88;1.70;;;;;;;;;;5383910;26;20000;-56
2024/04/22 11:27:30;;;;;;;2.67;1.90;;;;;;;;;;5383803;26;20508;-57
2024/04/22 11:29:55;;;;;;;2.08;1.88;;;;;;;;;;5383708;26;20073;-57
2024/04/22 11:32:21;;;;;;;2.22;1.73;;;;;;;;;;5383725;26;20024;-57
2024/04/22 11:34:47;;;;;;;2.42;2.08;;;;;;;;;;5383701;26;20000;-57
2024/04/22 11:37:12;;;;;;;2.05;1.77;;;;;;;;;;5383583;26;20418;-57
2024/04/22 11:39:37;;;;;;;2.15;1.73;;;;;;;;;;5383747;26;20006;-56
2024/04/22 11:42:03;;;;;;;1.90;1.80;;;;;;;;;;5383687;26;20016;-56
2024/04/22 11:44:29;;;;;;;2.55;1.70;;;;;;;;;;5383580;26;20075;-56
2024/04/22 11:46:54;;;;;;;4.28;2.67;;;;;;;;;;5383558;26;20455;-57
2024/04/22 11:49:20;;;;;;;2.47;1.90;;;;;;;;;;5352683;26;20003;-56
2024/04/22 11:51:45;;;;;;;3.67;2.15;;;;;;;;;;5383539;26;20418;-56
2024/04/22 11:54:11;;;;;;;2.03;1.73;;;;;;;;;;5383479;26;20322;-56
2024/04/22 11:56:37;;;;;;;2.95;1.55;;;;;;;;;;5383683;26;20004;-57
2024/04/22 11:59:04;;;;;;;2.70;1.90;;;;;;;;;;5383333;26;20488;-56
2024/04/22 12:01:30;;;;;;;2.03;1.67;;;;;;;;;;5382179;26;20453;-57
2024/04/22 12:03:55;;;;;;;4.43;2.72;;;;;;;;;;5383306;26;20000;-56
2024/04/22 12:06:21;;;;;;;7.80;3.03;;;;;;;;;;5383368;26;20378;-56
2024/04/22 12:08:46;;;;;;;5.43;3.95;;;;;;;;;;5323414;26;20379;-57
2024/04/22 12:11:11;;;;;;;3.05;2.00;;;;;;;;;;5383267;26;20004;-56
2024/04/22 12:13:37;;;;;;;2.00;1.80;;;;;;;;;;5383138;26;20000;-56
2024/04/22 12:16:02;;;;;;;3.25;1.98;;;;;;;;;;5383208;26;19994;-56
2024/04/22 12:18:28;;;;;;;3.70;2.60;;;;;;;;;;5383202;26;20326;-56
2024/04/22 12:20:53;;;;;;;2.17;1.77;;;;;;;;;;5382949;26;20451;-57
2024/04/22 12:23:19;;;;;;;2.38;1.70;;;;;;;;;;5383009;26;20000;-57
2024/04/22 12:25:44;;;;;;;1.80;1.67;;;;;;;;;;5383011;26;20000;-57
2024/04/22 12:28:12;;;;;;;3.40;1.80;;;;;;;;;;5382099;26;20011;-57
2024/04/22 12:30:37;;;;;;;1.58;1.48;;;;;;;;;;5376188;26;20000;-57
2024/04/22 12:33:03;;;;;;;1.77;1.42;;;;;;;;;;5368950;26;19996;-57
2024/04/22 12:35:28;;;;;;;1.45;1.35;;;;;;;;;;5378867;26;19996;-63
2024/04/22 12:37:54;;;;;;;1.52;1.23;;;;;;;;;;5382828;26;20003;-64
2024/04/22 12:40:19;;;;;;;1.58;1.48;;;;;;;;;;5382526;26;19992;-63
2024/04/22 12:42:44;;;;;;;1.95;1.70;;;;;;;;;;5351677;26;19992;-63
2024/04/22 12:45:10;;;;;;;2.00;1.90;;;;;;;;;;5382378;26;19992;-62
2024/04/22 12:53:06;;;;;;;1.75;1.65;;;;;;;;;;5382105;26;20004;-62
2024/04/22 12:55:31;;;;;;;1.73;1.63;;;;;;;;;;5382163;26;20000;-62
2024/04/22 12:57:59;;;;;;;1.67;1.45;;;;;;;;;;5382081;26;20454;-62
2024/04/22 13:00:25;;;;;;;1.90;1.80;;;;;;;;;;5382142;26;20074;-62
2024/04/22 13:02:51;;;;;;;2.00;1.60;;;;;;;;;;5382174;26;20000;-62
2024/04/22 13:05:16;;;;;;;16.45;6.32;;;;;;;;;;5381890;26;20004;-62
2024/04/22 13:07:42;;;;;;;1.80;1.70;;;;;;;;;;5380191;26;19996;-62
2024/04/22 13:10:08;;;;;;;2.00;1.88;;;;;;;;;;5380136;26;20607;-62
2024/04/22 13:12:33;;;;;;;2.30;1.58;;;;;;;;;;5380259;26;19992;-62
2024/04/22 13:14:58;;;;;;;1.92;1.75;;;;;;;;;;5382197;26;19996;-62
2024/04/22 13:17:24;;;;;;;1.85;1.75;;;;;;;;;;5382255;26;20082;-62
2024/04/22 13:19:49;;;;;;;4.22;3.58;;;;;;;;;;5382448;26;19999;-62
2024/04/22 13:22:14;;;;;;;1.70;1.60;;;;;;;;;;5382175;26;20446;-62
2024/04/22 13:24:44;;;;;;;1.70;1.60;;;;;;;;;;5383015;26;19992;-62
2024/04/22 13:27:09;;;;;;;3.00;2.35;;;;;;;;;;5354547;26;20015;-62
2024/04/22 13:29:35;;;;;;;2.03;1.85;;;;;;;;;;5385506;26;20074;-61
2024/04/22 13:32:05;;;;;;;1.92;1.73;;;;;;;;;;5373811;26;20015;-62
2024/04/22 13:34:30;;;;;;;;;;;;;;;;;;5385310;26;20004;-62
2024/04/22 13:36:56;;;;;;;2.10;2.00;;;;;;;;;;5384998;26;19932;-62
2024/04/22 13:39:23;;;;;;;3.15;2.13;;;;;;;;;;5384812;26;20008;-61
2024/04/22 13:41:49;;;;;;;2.35;2.05;;;;;;;;;;5354108;26;20008;-61
2024/04/22 13:44:14;;;;;;;2.80;2.60;;;;;;;;;;5384874;26;20066;-56
2024/04/22 13:46:42;;;;;;;17.23;12.73;;;;;;;;;;5384561;26;19996;-57
2024/04/22 13:49:10;;;;;;;3.28;2.97;;;;;;;;;;5389984;21;20370;-56
2024/04/22 13:51:36;;;;;;;3.10;2.60;;;;;;;;;;5402040;21;20004;-57
2024/04/22 13:56:37;;;;;;;2.95;2.53;;;;;;;;;;5395493;21;20014;-61
2024/04/22 13:59:02;;;;;;;3.38;3.10;;;;;;;;;;5384658;26;20000;-62
2024/04/22 14:01:28;;;;;;;3.20;2.90;;;;;;;;;;5384248;26;20004;-62
2024/04/22 14:03:53;;;;;;;4.75;4.22;;;;;;;;;;5384389;26;20011;-62
2024/04/22 14:06:19;;;;;;;3.17;2.97;;;;;;;;;;5383919;26;19992;-61
2024/04/22 14:08:47;;;;;;;2.00;1.90;;;;;;;;;;5384015;26;19996;-62
2024/04/22 14:11:13;;;;;;;3.45;2.80;;;;;;;;;;5383906;26;19996;-62
2024/04/22 14:13:39;;;;;;;3.30;2.67;;;;;;;;;;5383622;26;20023;-61
2024/04/22 14:16:04;;;;;;;3.33;3.03;;;;;;;;;;5384039;26;19996;-62
2024/04/22 14:18:30;;;;;;;3.08;2.88;;;;;;;;;;5382466;26;20000;-61
2024/04/22 14:20:56;;;;;;;7.70;5.85;;;;;;;;;;5352139;26;20069;-61
2024/04/22 14:23:22;;;;;;;6.35;5.75;;;;;;;;;;5383762;26;20379;-62
2024/04/22 14:25:50;;;;;;;7.35;4.70;;;;;;;;;;5383013;26;19992;-61
2024/04/22 14:28:15;;;;;;;3.63;3.33;;;;;;;;;;5381538;26;20018;-62
2024/04/22 14:30:41;;;;;;;2.80;2.60;;;;;;;;;;5382627;26;20005;-62
2024/04/22 14:33:06;;;;;;;3.53;3.10;;;;;;;;;;5383477;26;19996;-62
2024/04/22 14:35:32;;;;;;;3.70;3.38;;;;;;;;;;5383842;26;20000;-62
2024/04/22 14:38:00;;;;;;;2.70;2.50;;;;;;;;;;5352696;26;20000;-62
2024/04/22 14:40:26;;;;;;;3.58;2.70;;;;;;;;;;5352816;26;20435;-62
2024/04/22 14:42:53;;;;;;;6.95;4.47;;;;;;;;;;5383711;26;20000;-62
2024/04/22 14:45:18;;;;;;;11.38;6.63;;;;;;;;;;5352594;26;20006;-62
2024/04/22 14:47:44;;;;;;;11.48;10.18;;;;;;;;;;5383475;26;19996;-62
2024/04/22 14:50:09;;;;;;;12.93;7.70;;;;;;;;;;5383299;26;19992;-62